Observations for EXETER AIRPORT, United Kingdom (EGTE)

EGTE 171550Z 16006KT 9999 SCT045 09/05 Q1021
EGTE 171520Z 18008KT 9999 SCT044 09/05 Q1021
EGTE 171450Z 20004KT 170V230 9999 SCT044 10/05 Q1021
EGTE 171420Z 30004KT 240V360 9999 SCT025 12/04 Q1021
EGTE 171350Z 27005KT 9999 SCT025 10/03 Q1022
EGTE 171320Z 27005KT 230V320 9999 SCT025 10/03 Q1022
EGTE 171250Z 15002KT 9999 SCT025 11/05 Q1022
EGTE 171220Z VRB03KT 9999 SCT020 09/05 Q1022
EGTE 171150Z 33006KT 280V010 9999 FEW008 SCT030 10/06 Q1022 
EGTE 171120Z 31005KT 230V350 9999 FEW008 SCT018 08/06 Q1022 
EGTE 171050Z 21004KT 180V240 9999 FEW008 SCT018 08/06 Q1022 
EGTE 171020Z 22004KT 9999 7000E FEW018 SCT025 06/05 Q1022   
EGTE 170950Z 16004KT 9999 SCT020 SCT030 05/04 Q1021 RERA
EGTE 170920Z VRB01KT 8000 RA FEW010 BKN024 04/04 Q1021  
EGTE 170850Z VRB01KT 9999 VCSH FEW027 SCT040 04/03 Q1021
EGTE 170820Z VRB01KT 9999 VCSH FEW030 SCT045 03/02 Q1021
EGTE 170750Z VRB02KT 9999 FEW030 SCT045 02/02 Q1021 
EGTE 170550Z 02002KT 9999 BKN040 02/01 Q1020